createdAt,value
2018-06-23T00:02:16.825Z,99810.05
2018-06-23T00:04:46.807Z,99822.06
2018-06-23T00:07:16.985Z,99816.96
2018-06-23T00:09:47.312Z,99815.91
2018-06-23T00:12:17.514Z,99815.91
2018-06-23T00:14:48.326Z,99818.13
2018-06-23T00:17:18.326Z,99816.77
2018-06-23T00:19:48.534Z,99817.33
2018-06-23T00:22:18.646Z,99819.47
2018-06-23T00:24:48.903Z,99821.66
2018-06-23T00:27:18.909Z,99820.59
2018-06-23T00:29:48.966Z,99815.47
2018-06-23T00:32:18.949Z,99808.69
2018-06-23T00:34:49.328Z,99816.23
2018-06-23T00:37:19.567Z,99814.34
2018-06-23T00:39:49.759Z,99814.64
2018-06-23T00:42:21.369Z,99808.69
2018-06-23T00:44:51.835Z,99817.39
2018-06-23T00:47:22.030Z,99815.50
2018-06-23T00:49:52.222Z,99819.86
2018-06-23T00:52:22.286Z,99811.73
2018-06-23T00:54:52.834Z,99810.08
2018-06-23T00:57:23.384Z,99813.91
2018-06-23T00:59:53.559Z,99807.39
2018-06-23T01:02:24.353Z,99802.80
2018-06-23T01:04:54.643Z,99805.80
2018-06-23T01:07:25.252Z,99807.45
2018-06-23T01:09:55.440Z,99808.52
2018-06-23T01:12:25.630Z,99806.33
2018-06-23T01:14:55.841Z,99798.92
2018-06-23T01:17:25.906Z,99794.83
2018-06-23T01:19:55.860Z,99794.80
2018-06-23T01:22:25.991Z,99798.80
2018-06-23T01:24:55.880Z,99793.05
2018-06-23T01:27:27.013Z,99788.41
2018-06-23T01:29:57.283Z,99786.73
2018-06-23T01:32:27.362Z,99788.02
2018-06-23T01:34:57.508Z,99785.61
2018-06-23T01:37:27.647Z,99780.19
2018-06-23T01:39:58.084Z,99793.42
2018-06-23T01:42:28.451Z,99796.92
2018-06-23T01:44:58.587Z,99797.16
2018-06-23T01:47:28.789Z,99784.66
2018-06-23T01:49:58.836Z,99784.92
2018-06-23T01:52:29.004Z,99784.00
2018-06-23T01:54:59.327Z,99791.27
2018-06-23T01:57:29.246Z,99783.40
2018-06-23T01:59:59.355Z,99779.56
2018-06-23T02:02:29.717Z,99784.69
2018-06-23T02:05:00.092Z,99773.28
2018-06-23T02:07:30.399Z,99792.27
2018-06-23T02:10:00.565Z,99783.30
2018-06-23T02:12:30.727Z,99778.11
2018-06-23T02:15:05.983Z,99775.66
2018-06-23T02:17:41.393Z,99785.16
2018-06-23T02:20:16.582Z,99783.00
2018-06-23T02:22:51.723Z,99785.72
2018-06-23T02:25:26.838Z,99780.59
2018-06-23T02:28:01.995Z,99775.17
2018-06-23T02:30:36.146Z,99769.52
2018-06-23T02:33:11.267Z,99776.33
2018-06-23T02:35:41.993Z,99770.08
2018-06-23T02:38:12.390Z,99772.26
2018-06-23T02:40:42.502Z,99772.55
2018-06-23T02:43:12.550Z,99770.67
2018-06-23T02:45:42.400Z,99773.65
2018-06-23T02:48:12.361Z,99775.30
2018-06-23T02:50:43.911Z,99769.91
2018-06-23T02:53:14.341Z,99775.92
2018-06-23T02:55:44.608Z,99770.20
2018-06-23T02:58:14.879Z,99775.42
2018-06-23T03:00:45.616Z,99772.98
2018-06-23T03:03:15.735Z,99767.32
2018-06-23T03:05:45.951Z,99767.09
2018-06-23T03:08:16.141Z,99774.96
2018-06-23T03:10:47.164Z,99780.19
2018-06-23T03:13:17.322Z,99777.50
2018-06-23T03:15:47.340Z,99783.55
2018-06-23T03:18:17.407Z,99784.97
2018-06-23T03:20:47.479Z,99780.64
2018-06-23T03:23:17.686Z,99792.08
2018-06-23T03:25:47.903Z,99789.63
2018-06-23T03:28:17.846Z,99792.34
2018-06-23T03:30:48.131Z,99798.06
2018-06-23T03:33:18.234Z,99794.85
2018-06-23T03:35:48.470Z,99794.39
2018-06-23T03:38:18.657Z,99797.95
2018-06-23T03:40:48.524Z,99802.35
2018-06-23T03:43:18.932Z,99798.58
2018-06-23T03:45:50.750Z,99798.02
2018-06-23T03:48:20.756Z,99798.61
2018-06-23T03:50:50.978Z,99804.59
2018-06-23T03:53:21.104Z,99795.16
2018-06-23T03:55:51.316Z,99795.09
2018-06-23T03:58:21.469Z,99802.97
2018-06-23T04:00:56.927Z,99804.56
2018-06-23T04:03:28.292Z,99808.08
2018-06-23T04:05:58.859Z,99806.36
2018-06-23T04:08:28.806Z,99807.16
2018-06-23T04:10:59.395Z,99804.68
2018-06-23T04:13:29.529Z,99803.32
2018-06-23T04:16:00.514Z,99803.88
2018-06-23T04:18:30.677Z,99809.02
2018-06-23T04:21:00.919Z,99806.30
2018-06-23T04:23:31.471Z,99808.42
2018-06-23T04:26:01.563Z,99814.11
2018-06-23T04:28:31.691Z,99804.84
2018-06-23T04:31:01.899Z,99806.47
2018-06-23T04:33:32.001Z,99812.66
2018-06-23T04:36:01.900Z,99815.14
2018-06-23T04:38:32.439Z,99817.27
2018-06-23T04:41:02.856Z,99824.31
2018-06-23T04:43:36.024Z,99822.06
2018-06-23T04:46:07.069Z,99831.33
2018-06-23T04:48:37.161Z,99830.76
2018-06-23T04:51:07.344Z,99828.31
2018-06-23T04:53:46.920Z,99838.67
2018-06-23T04:56:17.847Z,99837.91
2018-06-23T04:58:47.807Z,99837.11
2018-06-23T05:01:17.981Z,99839.36
2018-06-23T05:03:48.314Z,99839.69
2018-06-23T05:06:20.212Z,99843.00
2018-06-23T05:08:50.625Z,99834.91
2018-06-23T05:11:20.874Z,99835.24
2018-06-23T05:13:51.500Z,99844.23
2018-06-23T05:16:21.712Z,99837.45
2018-06-23T05:18:52.121Z,99835.80
2018-06-23T05:21:22.379Z,99837.75
2018-06-23T05:23:54.383Z,99839.97
2018-06-23T05:26:24.746Z,99848.41
2018-06-23T05:28:54.951Z,99836.45
2018-06-23T05:31:25.366Z,99842.77
2018-06-23T05:33:55.867Z,99842.30
2018-06-23T05:36:25.907Z,99845.05
2018-06-23T05:38:56.079Z,99850.00
2018-06-23T05:41:26.256Z,99843.22
2018-06-23T05:43:56.426Z,99840.55
2018-06-23T05:46:26.398Z,99849.94
2018-06-23T05:48:56.662Z,99844.30
2018-06-23T05:51:26.974Z,99842.20
2018-06-23T05:53:57.222Z,99844.11
2018-06-23T05:56:27.206Z,99842.86
2018-06-23T05:58:57.694Z,99841.64
2018-06-23T06:01:27.851Z,99839.42
2018-06-23T06:03:58.042Z,99843.63
2018-06-23T06:06:28.487Z,99835.55
2018-06-23T06:08:58.914Z,99837.77
2018-06-23T06:11:29.566Z,99837.55
2018-06-23T06:13:59.818Z,99838.98
2018-06-23T06:16:51.737Z,99844.52
2018-06-23T06:19:21.720Z,99847.83
2018-06-23T06:21:52.551Z,99846.42
2018-06-23T06:24:22.590Z,99845.62
2018-06-23T06:26:52.700Z,99844.52
2018-06-23T06:29:22.779Z,99829.05
2018-06-23T06:31:53.160Z,99840.80
2018-06-23T06:34:23.226Z,99837.81
2018-06-23T06:36:53.697Z,99843.83
2018-06-23T06:39:23.779Z,99842.19
2018-06-23T06:41:54.959Z,99842.42
2018-06-23T06:44:25.111Z,99838.93
2018-06-23T06:46:55.791Z,99837.36
2018-06-23T06:49:26.117Z,99839.09
2018-06-23T06:51:56.224Z,99836.98
2018-06-23T06:54:27.016Z,99836.30
2018-06-23T06:56:57.455Z,99836.38
2018-06-23T06:59:27.621Z,99833.14
2018-06-23T07:01:57.913Z,99840.03
2018-06-23T07:04:28.425Z,99838.20
2018-06-23T07:06:58.663Z,99829.51
2018-06-23T07:09:29.456Z,99828.98
2018-06-23T07:11:59.572Z,99826.31
2018-06-23T07:14:29.605Z,99826.36
2018-06-23T07:16:59.831Z,99823.66
2018-06-23T07:19:30.324Z,99826.15
2018-06-23T07:22:01.308Z,99827.31
2018-06-23T07:24:31.049Z,99824.35
2018-06-23T07:27:01.113Z,99819.73
2018-06-23T07:29:31.407Z,99823.04
2018-06-23T07:32:01.618Z,99814.66
2018-06-23T07:34:32.561Z,99814.42
2018-06-23T07:37:03.170Z,99814.71
2018-06-23T07:39:33.387Z,99819.63
2018-06-23T07:42:03.251Z,99821.81
2018-06-23T07:44:33.653Z,99815.53
2018-06-23T07:47:03.942Z,99813.34
2018-06-23T07:49:34.726Z,99819.08
2018-06-23T07:52:05.377Z,99813.60
2018-06-23T07:54:35.726Z,99808.69
2018-06-23T07:57:06.475Z,99820.45
2018-06-23T07:59:37.401Z,99813.64
2018-06-23T08:02:07.860Z,99813.42
2018-06-23T08:04:37.998Z,99813.72
2018-06-23T08:07:08.023Z,99809.34
2018-06-23T08:09:38.276Z,99813.39
2018-06-23T08:12:08.584Z,99806.58
2018-06-23T08:14:39.046Z,99808.44
2018-06-23T08:17:10.408Z,99806.78
2018-06-23T08:19:40.758Z,99812.52
2018-06-23T08:22:10.925Z,99811.66
2018-06-23T08:24:41.225Z,99810.01
2018-06-23T08:27:12.148Z,99802.65
2018-06-23T08:29:42.567Z,99809.70
2018-06-23T08:32:12.743Z,99804.22
2018-06-23T08:34:43.176Z,99807.19
2018-06-23T08:37:13.855Z,99807.44
2018-06-23T08:39:44.123Z,99803.09
2018-06-23T08:42:14.303Z,99794.64
2018-06-23T08:44:44.542Z,99790.59
2018-06-23T08:47:15.263Z,99798.48
2018-06-23T08:49:45.497Z,99804.75
2018-06-23T08:52:15.927Z,99791.95
2018-06-23T08:54:46.283Z,99797.64
2018-06-23T08:57:16.375Z,99796.82
2018-06-23T08:59:46.560Z,99792.45
2018-06-23T09:02:16.801Z,99792.73
2018-06-23T09:04:46.974Z,99792.73
2018-06-23T09:07:17.210Z,99795.98
2018-06-23T09:09:47.494Z,99790.79
2018-06-23T09:12:17.799Z,99781.25
2018-06-23T09:14:54.604Z,99785.34
2018-06-23T09:17:24.820Z,99786.70
2018-06-23T09:19:55.066Z,99782.33
2018-06-23T09:22:25.457Z,99782.33
2018-06-23T09:24:56.138Z,99773.33
2018-06-23T09:27:26.224Z,99772.26
2018-06-23T09:29:56.556Z,99770.90
2018-06-23T09:32:26.773Z,99774.45
2018-06-23T09:34:56.854Z,99785.34
2018-06-23T09:37:27.094Z,99774.45
2018-06-23T09:39:57.271Z,99769.83
2018-06-23T09:42:27.489Z,99768.76
2018-06-23T09:44:57.876Z,99773.14
2018-06-23T09:47:28.083Z,99770.70
2018-06-23T09:50:01.222Z,99774.25
2018-06-23T09:52:32.040Z,99773.71
2018-06-23T09:55:02.777Z,99769.63
2018-06-23T09:57:32.917Z,99774.55
2018-06-23T10:00:03.406Z,99760.67
2018-06-23T10:02:33.523Z,99761.22
2018-06-23T10:05:04.395Z,99761.78
2018-06-23T10:07:34.582Z,99750.39
2018-06-23T10:10:06.543Z,99752.86
2018-06-23T10:12:36.583Z,99749.63
2018-06-23T10:15:06.798Z,99748.04
2018-06-23T10:17:36.840Z,99749.72
2018-06-23T10:20:07.530Z,99745.91
2018-06-23T10:22:37.666Z,99739.65
2018-06-23T10:25:08.761Z,99737.23
2018-06-23T10:27:38.883Z,99736.97
2018-06-23T10:30:09.091Z,99733.69
2018-06-23T10:32:46.016Z,99724.17
2018-06-23T10:35:16.976Z,99721.16
2018-06-23T10:37:47.909Z,99729.63
2018-06-23T10:40:18.056Z,99733.17
2018-06-23T10:42:48.243Z,99727.16
2018-06-23T10:45:18.527Z,99734.80
2018-06-23T10:47:48.721Z,99742.16
2018-06-23T10:50:18.987Z,99727.97
2018-06-23T10:52:49.254Z,99730.73
2018-06-23T10:55:19.430Z,99728.53
2018-06-23T10:57:49.713Z,99717.62
2018-06-23T11:00:21.463Z,99719.02
2018-06-23T11:02:51.802Z,99712.17
2018-06-23T11:05:22.108Z,99718.48
2018-06-23T11:07:52.493Z,99719.28
2018-06-23T11:10:22.591Z,99711.91
2018-06-23T11:12:52.978Z,99717.92
2018-06-23T11:15:23.163Z,99714.36
2018-06-23T11:17:54.818Z,99700.17
2018-06-23T11:20:25.174Z,99704.02
2018-06-23T11:22:55.537Z,99712.73
2018-06-23T11:25:25.742Z,99696.34
2018-06-23T11:27:56.571Z,99697.97
2018-06-23T11:30:26.898Z,99690.58
2018-06-23T11:32:57.304Z,99697.41
2018-06-23T11:35:27.559Z,99695.23
2018-06-23T11:37:57.787Z,99695.52
2018-06-23T11:40:28.209Z,99694.41
2018-06-23T11:42:58.394Z,99700.70
2018-06-23T11:45:28.840Z,99693.30
2018-06-23T11:47:58.939Z,99687.02
2018-06-23T11:50:29.465Z,99692.20
2018-06-23T11:52:59.832Z,99686.22
2018-06-23T11:55:30.574Z,99686.20
2018-06-23T11:58:00.757Z,99679.13
2018-06-23T12:00:31.580Z,99671.72
2018-06-23T12:03:01.794Z,99659.70
2018-06-23T12:05:32.521Z,99653.62
2018-06-23T12:08:02.762Z,99656.59
2018-06-23T12:10:34.085Z,99655.44
2018-06-23T12:13:04.312Z,99649.13
2018-06-23T12:15:35.486Z,99652.94
2018-06-23T12:18:05.762Z,99658.69
2018-06-23T12:20:36.500Z,99665.55
2018-06-23T12:23:06.894Z,99668.84
2018-06-23T12:25:37.323Z,99663.09
2018-06-23T12:28:07.961Z,99657.37
2018-06-23T12:30:38.196Z,99672.97
2018-06-23T12:33:08.470Z,99670.26
2018-06-23T12:35:39.044Z,99664.54
2018-06-23T12:38:09.207Z,99658.54
2018-06-23T12:40:40.067Z,99660.72
2018-06-23T12:43:10.194Z,99658.55
2018-06-23T12:45:40.558Z,99662.93
2018-06-23T12:48:10.851Z,99665.95
2018-06-23T12:50:41.493Z,99653.13
2018-06-23T12:53:11.585Z,99645.45
2018-06-23T12:55:42.133Z,99645.17
2018-06-23T12:58:12.318Z,99639.12
2018-06-23T13:00:42.517Z,99643.20
2018-06-23T13:03:12.717Z,99634.15
2018-06-23T13:05:42.939Z,99648.27
2018-06-23T13:08:13.222Z,99625.30
2018-06-23T13:10:44.008Z,99617.92
2018-06-23T13:13:14.348Z,99624.45
2018-06-23T13:15:44.448Z,99632.88
2018-06-23T13:18:14.708Z,99616.97
2018-06-23T13:20:45.187Z,99614.45
2018-06-23T13:23:15.519Z,99619.84
2018-06-23T13:25:45.740Z,99610.72
2018-06-23T13:28:16.169Z,99613.33
2018-06-23T13:30:46.282Z,99606.92
2018-06-23T13:33:16.378Z,99603.25
2018-06-23T13:35:46.749Z,99602.03
2018-06-23T13:38:16.555Z,99601.67
2018-06-23T13:40:46.911Z,99600.50
2018-06-23T13:43:16.927Z,99591.45
2018-06-23T13:45:47.210Z,99598.86
2018-06-23T13:48:17.507Z,99587.44
2018-06-23T13:50:47.826Z,99589.36
2018-06-23T13:53:18.316Z,99587.98
2018-06-23T13:55:48.524Z,99578.91
2018-06-23T13:58:18.761Z,99580.81
2018-06-23T14:00:49.177Z,99577.76
2018-06-23T14:03:19.503Z,99571.64
2018-06-23T14:05:49.891Z,99578.73
2018-06-23T14:08:20.235Z,99576.25
2018-06-23T14:10:50.592Z,99570.19
2018-06-23T14:13:21.229Z,99565.24
2018-06-23T14:15:51.708Z,99560.00
2018-06-23T14:18:22.766Z,99566.30
2018-06-23T14:20:53.833Z,99564.94
2018-06-23T14:23:24.213Z,99553.16
2018-06-23T14:25:54.349Z,99555.89
2018-06-23T14:28:24.872Z,99564.66
2018-06-23T14:30:55.047Z,99558.31
2018-06-23T14:33:25.822Z,99547.89
2018-06-23T14:35:56.160Z,99550.30
2018-06-23T14:38:26.544Z,99551.89
2018-06-23T14:40:56.804Z,99550.75
2018-06-23T14:43:27.267Z,99542.70
2018-06-23T14:45:57.800Z,99545.89
2018-06-23T14:48:28.159Z,99546.13
2018-06-23T14:50:58.826Z,99552.10
2018-06-23T14:53:29.175Z,99544.60
2018-06-23T14:56:00.048Z,99535.77
2018-06-23T14:58:29.948Z,99537.30
2018-06-23T15:01:00.231Z,99542.40
2018-06-23T15:03:30.534Z,99545.63
2018-06-23T15:06:02.703Z,99544.75
2018-06-23T15:08:43.740Z,99537.11
2018-06-23T15:11:24.359Z,99532.73
2018-06-23T15:13:54.412Z,99531.62
2018-06-23T15:16:24.901Z,99539.80
2018-06-23T15:18:55.315Z,99538.70
2018-06-23T15:21:25.774Z,99531.84
2018-06-23T15:23:56.125Z,99533.11
2018-06-23T15:26:26.865Z,99531.66
2018-06-23T15:28:57.098Z,99523.38
2018-06-23T15:31:27.500Z,99533.52
2018-06-23T15:33:57.692Z,99520.83
2018-06-23T15:36:28.001Z,99538.00
2018-06-23T15:38:58.171Z,99532.17
2018-06-23T15:41:28.627Z,99534.57
2018-06-23T15:43:58.723Z,99534.50
2018-06-23T15:46:29.008Z,99541.06
2018-06-23T15:48:59.107Z,99542.42
2018-06-23T15:51:29.549Z,99552.34
2018-06-23T15:53:59.969Z,99552.95
2018-06-23T15:56:30.508Z,99567.22
2018-06-23T15:59:00.899Z,99551.09
2018-06-23T16:01:31.255Z,99560.72
2018-06-23T16:04:01.154Z,99562.09
2018-06-23T16:06:31.652Z,99556.98
2018-06-23T16:09:01.807Z,99547.12
2018-06-23T16:11:32.048Z,99545.55
2018-06-23T16:14:02.998Z,99553.77
2018-06-23T16:16:33.431Z,99565.34
2018-06-23T16:19:03.539Z,99546.68
2018-06-23T16:21:33.690Z,99558.50
2018-06-23T16:24:04.004Z,99558.81
2018-06-23T16:26:35.400Z,99549.23
2018-06-23T16:29:05.688Z,99560.81
2018-06-23T16:31:35.970Z,99569.59
2018-06-23T16:34:06.427Z,99569.33
2018-06-23T16:36:36.922Z,99562.02
2018-06-23T16:39:09.445Z,99564.78
2018-06-23T16:41:39.992Z,99554.41
2018-06-23T16:44:10.317Z,99576.40
2018-06-23T16:46:40.481Z,99578.16
2018-06-23T16:49:10.838Z,99570.81
2018-06-23T16:51:41.128Z,99562.36
2018-06-23T16:54:11.563Z,99582.70
2018-06-23T16:56:41.803Z,99563.58
2018-06-23T16:59:12.147Z,99576.52
2018-06-23T17:01:42.206Z,99574.17
2018-06-23T17:04:12.579Z,99574.83
2018-06-23T17:06:43.160Z,99573.84
2018-06-23T17:09:13.323Z,99575.02
2018-06-23T17:11:43.706Z,99585.75
2018-06-23T17:14:13.889Z,99582.25
2018-06-23T17:16:44.305Z,99579.03
2018-06-23T17:19:14.899Z,99581.28
2018-06-23T17:21:45.417Z,99580.81
2018-06-23T17:24:15.415Z,99590.18
2018-06-23T17:26:45.702Z,99583.69
2018-06-23T17:29:16.384Z,99586.47
2018-06-23T17:31:46.967Z,99577.78
2018-06-23T17:34:17.333Z,99590.97
2018-06-23T17:36:47.545Z,99590.77
2018-06-23T17:39:18.068Z,99586.19
2018-06-23T17:41:49.765Z,99591.19
2018-06-23T17:44:20.356Z,99594.81
2018-06-23T17:46:50.812Z,99598.13
2018-06-23T17:49:21.106Z,99597.59
2018-06-23T17:51:51.606Z,99602.81
2018-06-23T17:54:21.937Z,99599.26
2018-06-23T17:56:51.892Z,99594.64
2018-06-23T17:59:22.387Z,99603.70
2018-06-23T18:01:52.851Z,99606.70
2018-06-23T18:04:23.152Z,99603.45
2018-06-23T18:06:53.379Z,99605.16
2018-06-23T18:09:23.730Z,99607.64
2018-06-23T18:11:54.115Z,99612.56
2018-06-23T18:14:24.221Z,99609.28
2018-06-23T18:16:54.430Z,99615.84
2018-06-23T18:19:24.600Z,99617.80
2018-06-23T18:21:54.726Z,99619.19
2018-06-23T18:24:24.986Z,99621.13
2018-06-23T18:26:55.127Z,99624.45
2018-06-23T18:29:25.381Z,99626.91
2018-06-23T18:31:55.861Z,99633.79
2018-06-23T18:34:26.324Z,99625.61
2018-06-23T18:36:56.340Z,99629.18
2018-06-23T18:39:26.603Z,99626.22
2018-06-23T18:41:57.100Z,99634.16
2018-06-23T18:44:27.714Z,99638.83
2018-06-23T18:46:58.026Z,99649.51
2018-06-23T18:49:28.330Z,99642.70
2018-06-23T18:51:59.894Z,99640.81
2018-06-23T18:54:35.097Z,99642.75
2018-06-23T18:57:05.881Z,99650.40
2018-06-23T18:59:36.327Z,99650.67
2018-06-23T19:02:06.580Z,99649.04
2018-06-23T19:04:36.755Z,99653.14
2018-06-23T19:07:06.903Z,99650.97
2018-06-23T19:09:37.476Z,99657.25
2018-06-23T19:12:08.698Z,99659.98
2018-06-23T19:14:38.926Z,99669.00
2018-06-23T19:17:09.519Z,99672.54
2018-06-23T19:19:39.910Z,99671.17
2018-06-23T19:22:10.075Z,99681.84
2018-06-23T19:24:40.277Z,99677.20
2018-06-23T19:27:10.567Z,99684.59
2018-06-23T19:29:40.740Z,99689.47
2018-06-23T19:32:10.933Z,99688.42
2018-06-23T19:34:41.053Z,99691.70
2018-06-23T19:37:11.260Z,99684.62
2018-06-23T19:39:41.352Z,99698.26
2018-06-23T19:42:12.745Z,99690.90
2018-06-23T19:44:42.921Z,99699.91
2018-06-23T19:47:13.148Z,99706.98
2018-06-23T19:49:43.396Z,99703.72
2018-06-23T19:52:13.534Z,99708.08
2018-06-23T19:54:44.637Z,99707.00
2018-06-23T19:57:15.270Z,99709.17
2018-06-23T19:59:45.556Z,99703.16
2018-06-23T20:02:15.957Z,99709.46
2018-06-23T20:04:46.148Z,99708.36
2018-06-23T20:07:16.358Z,99705.09
2018-06-23T20:09:46.626Z,99702.36
2018-06-23T20:12:17.154Z,99701.28
2018-06-23T20:14:48.888Z,99704.56
2018-06-23T20:17:19.196Z,99705.09
2018-06-23T20:19:49.404Z,99699.65
2018-06-23T20:22:19.697Z,99713.84
2018-06-23T20:24:50.435Z,99714.39
2018-06-23T20:27:20.530Z,99719.03
2018-06-23T20:29:51.066Z,99715.22
2018-06-23T20:32:21.104Z,99708.66
2018-06-23T20:34:51.215Z,99716.84
2018-06-23T20:37:22.119Z,99718.47
2018-06-23T20:39:52.252Z,99721.20
2018-06-23T20:42:22.327Z,99726.66
2018-06-23T20:44:52.863Z,99728.84
2018-06-23T20:47:23.057Z,99728.56
2018-06-23T20:49:54.010Z,99729.09
2018-06-23T20:52:24.035Z,99725.56
2018-06-23T20:54:53.900Z,99725.84
2018-06-23T20:57:23.915Z,99724.47
2018-06-23T20:59:54.030Z,99719.81
2018-06-23T21:02:24.332Z,99723.92
2018-06-23T21:04:55.398Z,99717.11
2018-06-23T21:07:25.609Z,99717.36
2018-06-23T21:09:55.997Z,99715.75
2018-06-23T21:12:25.985Z,99716.54
2018-06-23T21:14:56.318Z,99717.36
2018-06-23T21:17:26.433Z,99709.72
2018-06-23T21:19:56.458Z,99704.28
2018-06-23T21:22:26.578Z,99710.55
2018-06-23T21:24:56.681Z,99709.73
2018-06-23T21:27:27.014Z,99704.01
2018-06-23T21:29:57.292Z,99707.83
2018-06-23T21:32:27.589Z,99710.81
2018-06-23T21:34:57.983Z,99704.55
2018-06-23T21:37:28.905Z,99715.45
2018-06-23T21:39:58.915Z,99709.98
2018-06-23T21:42:29.566Z,99714.91
2018-06-23T21:45:00.045Z,99706.98
2018-06-23T21:47:30.399Z,99720.38
2018-06-23T21:50:01.767Z,99708.91
2018-06-23T21:52:32.446Z,99712.72
2018-06-23T21:55:02.872Z,99711.36
2018-06-23T21:57:33.275Z,99712.73
2018-06-23T22:00:03.846Z,99713.28
2018-06-23T22:02:33.714Z,99707.27
2018-06-23T22:05:04.428Z,99714.08
2018-06-23T22:07:35.025Z,99714.11
2018-06-23T22:10:05.113Z,99711.10
2018-06-23T22:12:35.335Z,99714.09
2018-06-23T22:15:05.589Z,99710.54
2018-06-23T22:17:36.035Z,99714.38
2018-06-23T22:20:06.633Z,99702.63
2018-06-23T22:22:37.187Z,99704.53
2018-06-23T22:25:07.387Z,99702.36
2018-06-23T22:27:37.780Z,99708.38
2018-06-23T22:30:07.846Z,99700.45
2018-06-23T22:32:38.169Z,99709.19
2018-06-23T22:35:09.082Z,99706.98
2018-06-23T22:37:39.740Z,99712.44
2018-06-23T22:40:10.356Z,99717.89
2018-06-23T22:42:40.352Z,99711.89
2018-06-23T22:45:10.731Z,99709.45
2018-06-23T22:47:40.814Z,99706.44
2018-06-23T22:50:11.373Z,99712.72
2018-06-23T22:52:41.553Z,99705.88
2018-06-23T22:55:11.880Z,99705.08
2018-06-23T22:57:42.882Z,99711.35
2018-06-23T23:00:14.271Z,99704.52
2018-06-23T23:02:45.798Z,99712.42
2018-06-23T23:05:15.908Z,99708.59
2018-06-23T23:07:46.162Z,99710.78
2018-06-23T23:10:16.359Z,99705.61
2018-06-23T23:12:46.802Z,99717.34
2018-06-23T23:15:17.112Z,99701.78
2018-06-23T23:17:48.292Z,99711.58
2018-06-23T23:20:18.479Z,99701.77
2018-06-23T23:22:48.824Z,99712.11
2018-06-23T23:25:20.339Z,99710.95
2018-06-23T23:27:50.284Z,99700.31
2018-06-23T23:30:20.543Z,99700.55
2018-06-23T23:32:50.891Z,99697.50
2018-06-23T23:35:20.982Z,99683.28
2018-06-23T23:37:51.238Z,99693.92
2018-06-23T23:40:22.083Z,99693.07
2018-06-23T23:42:52.108Z,99689.77
2018-06-23T23:45:28.700Z,99692.74
2018-06-23T23:47:58.817Z,99693.24
2018-06-23T23:50:29.022Z,99694.03
2018-06-23T23:52:59.452Z,99693.73
2018-06-23T23:55:29.576Z,99694.27
2018-06-23T23:57:59.656Z,99691.25
